Time,TemperatureF,DewpointF,PressureIn,WindDirection,WindDirectionDegrees,WindSpeedMPH,WindSpeedGustMPH,Humidity,HourlyPrecipIn,Conditions,Clouds,dailyrainin,SolarRadiationWatts/m^2,SoftwareType,DateUTC
2013-04-26 00:00:00,74.6,64.6,30.19,SSW,202,6.0,12.0,71,0.00,,---,0.00,0.00,VWS V14.01,2013-04-26 04:00:00,
2013-04-26 00:06:00,74.5,65.0,30.19,South,174,9.0,11.0,72,0.00,,,0.00,0,weatherlink.com 1.10,2013-04-26 04:06:00,
2013-04-26 00:21:00,74.4,64.0,30.19,SSE,155,10.0,11.0,71,0.00,,,0.00,0,weatherlink.com 1.10,2013-04-26 04:21:00,
2013-04-26 00:30:00,74.4,64.4,30.19,South,180,8.0,13.0,71,0.00,,---,0.00,0.00,VWS V14.01,2013-04-26 04:30:00,
2013-04-26 00:36:00,74.4,64.0,30.19,SSE,165,8.0,13.0,71,0.00,,,0.00,0,weatherlink.com 1.10,2013-04-26 04:36:00,
2013-04-26 00:51:00,74.4,64.0,30.19,SSE,162,9.0,11.0,71,0.00,,,0.00,0,weatherlink.com 1.10,2013-04-26 04:51:00,
2013-04-26 01:00:00,74.3,63.9,30.19,South,180,8.0,13.0,70,0.00,,---,0.00,0.00,VWS V14.01,2013-04-26 05:00:00,
2013-04-26 01:06:00,74.3,65.0,30.19,SSE,153,5.0,10.0,72,0.00,,,0.00,0,weatherlink.com 1.10,2013-04-26 05:06:00,
2013-04-26 01:21:00,74.2,64.0,30.18,SSE,155,7.0,10.0,71,0.00,,,0.00,0,weatherlink.com 1.10,2013-04-26 05:21:00,
2013-04-26 01:30:00,74.2,64.2,30.18,SSE,158,7.0,11.0,71,0.00,,---,0.00,0.00,VWS V14.01,2013-04-26 05:30:00,
2013-04-26 01:36:00,74.2,64.0,30.18,South,173,7.0,9.0,71,0.00,,,0.00,0,weatherlink.com 1.10,2013-04-26 05:36:00,
2013-04-26 01:51:00,74.0,64.0,30.17,SSE,154,4.0,9.0,70,0.00,,,0.00,0,weatherlink.com 1.10,2013-04-26 05:51:00,
2013-04-26 02:00:00,74.0,63.6,30.17,SSE,158,6.0,10.0,70,0.00,,---,0.00,0.00,VWS V14.01,2013-04-26 06:00:00,
2013-04-26 02:06:00,74.1,64.0,30.16,SSE,157,3.0,9.0,71,0.00,,,0.00,0,weatherlink.com 1.10,2013-04-26 06:06:00,
2013-04-26 02:21:00,74.0,63.0,30.16,South,173,5.0,9.0,69,0.00,,,0.00,0,weatherlink.com 1.10,2013-04-26 06:21:00,
2013-04-26 02:30:00,74.0,63.6,30.16,SSE,158,5.0,9.0,70,0.00,,---,0.00,0.00,VWS V14.01,2013-04-26 06:30:00,
2013-04-26 02:36:00,74.0,63.0,30.16,SSE,147,3.0,8.0,69,0.00,,,0.00,0,weatherlink.com 1.10,2013-04-26 06:36:00,
2013-04-26 02:51:00,73.9,64.0,30.15,SSE,160,8.0,9.0,70,0.00,,,0.00,0,weatherlink.com 1.10,2013-04-26 06:51:00,
2013-04-26 03:00:00,73.9,63.9,30.15,SSE,158,5.0,9.0,71,0.00,,---,0.00,0.00,VWS V14.01,2013-04-26 07:00:00,
2013-04-26 03:06:00,73.9,63.0,30.15,SSE,165,5.0,9.0,69,0.00,,,0.00,0,weatherlink.com 1.10,2013-04-26 07:06:00,
2013-04-26 03:21:00,73.8,64.0,30.14,SE,128,3.0,7.0,71,0.00,,,0.00,0,weatherlink.com 1.10,2013-04-26 07:21:00,
2013-04-26 03:30:00,73.8,63.8,30.14,SSE,158,4.0,9.0,71,0.00,,---,0.00,0.00,VWS V14.01,2013-04-26 07:30:00,
2013-04-26 03:36:00,73.7,63.0,30.14,ESE,120,2.0,7.0,70,0.00,,,0.00,0,weatherlink.com 1.10,2013-04-26 07:36:00,
2013-04-26 03:51:00,73.7,63.0,30.14,SSE,153,2.0,5.0,70,0.00,,,0.00,0,weatherlink.com 1.10,2013-04-26 07:51:00,
2013-04-26 04:00:00,73.6,63.2,30.15,SSE,158,3.0,7.0,70,0.00,,---,0.00,0.00,VWS V14.01,2013-04-26 08:00:00,
2013-04-26 04:07:00,73.5,63.0,30.15,SE,138,2.0,5.0,70,0.00,,,0.00,0,weatherlink.com 1.10,2013-04-26 08:07:00,
2013-04-26 04:22:00,73.4,63.0,30.14,South,172,2.0,4.0,71,0.00,,,0.00,0,weatherlink.com 1.10,2013-04-26 08:22:00,
2013-04-26 04:30:00,73.4,63.4,30.14,South,180,2.0,5.0,71,0.00,,---,0.00,0.00,VWS V14.01,2013-04-26 08:30:00,
2013-04-26 04:37:00,73.3,64.0,30.15,NW,310,0.0,3.0,72,0.00,,,0.00,0,weatherlink.com 1.10,2013-04-26 08:37:00,
2013-04-26 04:52:00,72.8,64.0,30.15,NW,310,0.0,2.0,73,0.00,,,0.00,0,weatherlink.com 1.10,2013-04-26 08:52:00,
2013-04-26 05:00:00,72.5,63.8,30.15,NW,315,1.0,3.0,74,0.00,,---,0.00,0.00,VWS V14.01,2013-04-26 09:00:00,
2013-04-26 05:07:00,71.9,64.0,30.15,SE,142,2.0,3.0,75,0.00,,,0.00,0,weatherlink.com 1.10,2013-04-26 09:07:00,
2013-04-26 05:22:00,71.1,63.0,30.15,WNW,302,1.0,2.0,76,0.00,,,0.00,0,weatherlink.com 1.10,2013-04-26 09:22:00,
2013-04-26 05:30:00,70.8,62.9,30.15,ENE,68,1.0,4.0,76,0.00,,---,0.00,0.00,VWS V14.01,2013-04-26 09:30:00,
2013-04-26 05:52:00,69.9,63.0,30.15,WNW,282,2.0,3.0,78,0.00,,,0.00,0,weatherlink.com 1.10,2013-04-26 09:52:00,
2013-04-26 06:00:00,69.7,62.9,30.15,West,270,1.0,3.0,79,0.00,,---,0.00,0.00,VWS V14.01,2013-04-26 10:00:00,
2013-04-26 06:07:00,69.4,63.0,30.15,WNW,299,1.0,4.0,80,0.00,,,0.00,0,weatherlink.com 1.10,2013-04-26 10:07:00,
2013-04-26 06:22:00,68.9,63.0,30.15,WNW,291,0.0,3.0,82,0.00,,,0.00,0,weatherlink.com 1.10,2013-04-26 10:22:00,
2013-04-26 06:30:00,68.7,63.0,30.16,NNW,338,1.0,4.0,82,0.00,,---,0.00,0.00,VWS V14.01,2013-04-26 10:30:00,
2013-04-26 06:37:00,68.5,63.0,30.16,NE,34,1.0,4.0,83,0.00,,,0.00,0,weatherlink.com 1.10,2013-04-26 10:37:00,
2013-04-26 06:52:00,68.3,63.0,30.16,NW,321,1.0,3.0,84,0.00,,,0.00,11,weatherlink.com 1.10,2013-04-26 10:52:00,
2013-04-26 07:00:00,68.2,63.5,30.17,NW,315,1.0,4.0,85,0.00,,---,0.00,5.00,VWS V14.01,2013-04-26 11:00:00,
2013-04-26 07:07:00,68.2,64.0,30.17,WNW,299,3.0,3.0,85,0.00,,,0.00,26,weatherlink.com 1.10,2013-04-26 11:07:00,
2013-04-26 07:22:00,68.4,64.0,30.18,NW,304,1.0,3.0,87,0.00,,,0.00,56,weatherlink.com 1.10,2013-04-26 11:22:00,
2013-04-26 07:30:00,68.7,64.7,30.19,NW,315,1.0,4.0,87,0.00,,---,0.00,40.00,VWS V14.01,2013-04-26 11:30:00,
2013-04-26 07:37:00,69.1,65.0,30.19,NW,309,1.0,3.0,87,0.00,,,0.00,97,weatherlink.com 1.10,2013-04-26 11:37:00,
2013-04-26 07:52:00,70.3,67.0,30.20,NW,309,2.0,3.0,88,0.00,,,0.00,155,weatherlink.com 1.10,2013-04-26 11:52:00,
2013-04-26 08:00:00,70.9,66.8,30.20,NW,315,1.0,4.0,87,0.00,,---,0.00,124.00,VWS V14.01,2013-04-26 12:00:00,
2013-04-26 08:07:00,71.8,68.0,30.20,NW,309,0.0,3.0,87,0.00,,,0.00,213,weatherlink.com 1.10,2013-04-26 12:07:00,
2013-04-26 08:22:00,73.5,69.0,30.19,NW,310,1.0,3.0,85,0.00,,,0.00,265,weatherlink.com 1.10,2013-04-26 12:22:00,
2013-04-26 08:30:00,74.4,68.9,30.19,NW,315,1.0,3.0,83,0.00,,---,0.00,236.00,VWS V14.01,2013-04-26 12:30:00,
2013-04-26 08:37:00,75.4,69.0,30.20,NW,307,1.0,4.0,80,0.00,,,0.00,323,weatherlink.com 1.10,2013-04-26 12:37:00,
2013-04-26 08:52:00,77.4,69.0,30.20,NE,36,3.0,4.0,75,0.00,,,0.00,378,weatherlink.com 1.10,2013-04-26 12:52:00,
2013-04-26 09:00:00,78.3,69.3,30.20,NW,315,2.0,5.0,74,0.00,,---,0.00,347.00,VWS V14.01,2013-04-26 13:00:00,
2013-04-26 09:07:00,79.6,70.0,30.21,WSW,258,2.0,7.0,72,0.00,,,0.00,438,weatherlink.com 1.10,2013-04-26 13:07:00,
2013-04-26 09:23:00,81.3,70.0,30.22,West,260,2.0,5.0,69,0.00,,,0.00,492,weatherlink.com 1.10,2013-04-26 13:23:00,
2013-04-26 09:30:00,81.8,70.2,30.22,NE,45,3.0,7.0,68,0.00,,---,0.00,461.00,VWS V14.01,2013-04-26 13:30:00,
2013-04-26 09:38:00,82.5,70.0,30.22,WNW,284,1.0,6.0,67,0.00,,,0.00,543,weatherlink.com 1.10,2013-04-26 13:38:00,
2013-04-26 09:53:00,83.4,70.0,30.23,NE,47,3.0,6.0,64,0.00,,,0.00,605,weatherlink.com 1.10,2013-04-26 13:53:00,
2013-04-26 10:00:00,83.8,70.3,30.23,NE,45,3.0,7.0,64,0.00,,---,0.00,574.00,VWS V14.01,2013-04-26 14:00:00,
2013-04-26 10:08:00,84.3,69.0,30.23,NNW,328,3.0,6.0,61,0.00,,,0.00,445,weatherlink.com 1.10,2013-04-26 14:08:00,
2013-04-26 10:23:00,84.7,70.0,30.23,East,92,2.0,6.0,61,0.00,,,0.00,737,weatherlink.com 1.10,2013-04-26 14:23:00,
2013-04-26 10:30:00,85.0,70.1,30.24,NE,45,3.0,8.0,61,0.00,,---,0.00,639.00,VWS V14.01,2013-04-26 14:30:00,
2013-04-26 10:38:00,85.4,70.0,30.24,NNE,30,5.0,8.0,60,0.00,,,0.00,765,weatherlink.com 1.10,2013-04-26 14:38:00,
2013-04-26 10:54:00,85.7,70.0,30.24,ENE,65,8.0,8.0,60,0.00,,,0.00,812,weatherlink.com 1.10,2013-04-26 14:54:00,
2013-04-26 11:00:00,85.7,69.7,30.24,NE,45,3.0,8.0,59,0.00,,---,0.00,770.00,VWS V14.01,2013-04-26 15:00:00,
2013-04-26 11:08:00,85.8,70.0,30.24,NNE,26,4.0,7.0,59,0.00,,,0.00,823,weatherlink.com 1.10,2013-04-26 15:08:00,
2013-04-26 11:23:00,86.1,70.0,30.24,NNE,22,4.0,7.0,59,0.00,,,0.00,872,weatherlink.com 1.10,2013-04-26 15:23:00,
2013-04-26 11:30:00,86.1,70.1,30.24,NE,45,3.0,8.0,59,0.00,,---,0.00,839.00,VWS V14.01,2013-04-26 15:30:00,
2013-04-26 11:38:00,86.2,70.0,30.24,NE,55,5.0,7.0,58,0.00,,,0.00,891,weatherlink.com 1.10,2013-04-26 15:38:00,
2013-04-26 11:53:00,86.1,70.0,30.24,WNW,291,4.0,8.0,58,0.00,,,0.00,916,weatherlink.com 1.10,2013-04-26 15:53:00,
2013-04-26 12:00:00,85.9,69.9,30.24,NNE,22,4.0,8.0,59,0.00,,---,0.00,899.00,VWS V14.01,2013-04-26 16:00:00,
2013-04-26 12:08:00,85.8,70.0,30.24,ENE,61,5.0,7.0,60,0.00,,,0.00,939,weatherlink.com 1.10,2013-04-26 16:08:00,
2013-04-26 12:23:00,85.2,70.0,30.24,NNE,16,5.0,9.0,60,0.00,,,0.00,958,weatherlink.com 1.10,2013-04-26 16:23:00,
2013-04-26 12:30:00,85.1,69.7,30.23,NNE,22,4.0,9.0,60,0.00,,---,0.00,947.00,VWS V14.01,2013-04-26 16:30:00,
2013-04-26 12:38:00,83.2,69.0,30.23,NNW,327,4.0,7.0,63,0.00,,,0.00,976,weatherlink.com 1.10,2013-04-26 16:38:00,
2013-04-26 12:54:00,82.6,69.0,30.23,North,5,3.0,8.0,64,0.00,,,0.00,988,weatherlink.com 1.10,2013-04-26 16:54:00,
2013-04-26 13:00:00,82.7,69.8,30.23,NNW,338,5.0,8.0,65,0.00,,---,0.00,980.00,VWS V14.01,2013-04-26 17:00:00,
2013-04-26 13:08:00,82.7,70.0,30.23,NNE,32,3.0,8.0,66,0.00,,,0.00,997,weatherlink.com 1.10,2013-04-26 17:08:00,
2013-04-26 13:23:00,83.6,70.0,30.23,NNW,343,5.0,7.0,63,0.00,,,0.00,998,weatherlink.com 1.10,2013-04-26 17:23:00,
2013-04-26 13:30:00,83.4,69.9,30.23,NNW,338,4.0,8.0,64,0.00,,---,0.00,996.00,VWS V14.01,2013-04-26 17:30:00,
2013-04-26 13:38:00,83.3,69.0,30.23,NNW,342,4.0,7.0,63,0.00,,,0.00,998,weatherlink.com 1.10,2013-04-26 17:38:00,
2013-04-26 13:53:00,84.7,70.0,30.23,NE,40,6.0,8.0,61,0.00,,,0.00,993,weatherlink.com 1.10,2013-04-26 17:53:00,
2013-04-26 14:00:00,84.8,69.4,30.23,NW,315,4.0,8.0,60,0.00,,---,0.00,994.00,VWS V14.01,2013-04-26 18:00:00,
2013-04-26 14:08:00,84.7,69.0,30.22,NW,315,4.0,8.0,60,0.00,,,0.00,984,weatherlink.com 1.10,2013-04-26 18:08:00,
2013-04-26 14:23:00,84.2,70.0,30.22,NW,318,6.0,7.0,62,0.00,,,0.00,970,weatherlink.com 1.10,2013-04-26 18:23:00,
2013-04-26 14:30:00,84.5,69.6,30.22,NW,315,5.0,9.0,61,0.00,,---,0.00,977.00,VWS V14.01,2013-04-26 18:30:00,
2013-04-26 14:38:00,84.8,70.0,30.21,NW,325,3.0,8.0,61,0.00,,,0.00,953,weatherlink.com 1.10,2013-04-26 18:38:00,
2013-04-26 14:53:00,85.0,70.0,30.21,NW,323,3.0,8.0,62,0.00,,,0.00,928,weatherlink.com 1.10,2013-04-26 18:53:00,
2013-04-26 15:00:00,84.9,70.0,30.21,NW,315,4.0,9.0,61,0.00,,---,0.00,943.00,VWS V14.01,2013-04-26 19:00:00,
2013-04-26 15:08:00,84.6,70.0,30.21,NE,41,5.0,9.0,62,0.00,,,0.00,904,weatherlink.com 1.10,2013-04-26 19:08:00,
2013-04-26 15:23:00,84.1,70.0,30.20,NNW,341,5.0,9.0,63,0.00,,,0.00,867,weatherlink.com 1.10,2013-04-26 19:23:00,
2013-04-26 15:30:00,84.0,69.6,30.20,NW,315,5.0,9.0,62,0.00,,---,0.00,889.00,VWS V14.01,2013-04-26 19:30:00,
2013-04-26 15:38:00,84.2,70.0,30.20,NW,320,5.0,8.0,63,0.00,,,0.00,833,weatherlink.com 1.10,2013-04-26 19:38:00,
2013-04-26 15:53:00,84.8,70.0,30.19,WNW,283,3.0,7.0,61,0.00,,,0.00,802,weatherlink.com 1.10,2013-04-26 19:53:00,
2013-04-26 16:00:00,85.0,69.6,30.19,WNW,292,4.0,8.0,60,0.00,,---,0.00,822.00,VWS V14.01,2013-04-26 20:00:00,
2013-04-26 16:08:00,85.5,69.0,30.19,West,265,4.0,7.0,59,0.00,,,0.00,751,weatherlink.com 1.10,2013-04-26 20:08:00,
2013-04-26 16:23:00,86.1,71.0,30.19,West,278,2.0,6.0,60,0.00,,,0.00,714,weatherlink.com 1.10,2013-04-26 20:23:00,
2013-04-26 16:30:00,86.3,69.8,30.19,West,270,3.0,7.0,58,0.00,,---,0.00,740.00,VWS V14.01,2013-04-26 20:30:00,
2013-04-26 16:38:00,86.5,69.0,30.19,WNW,303,2.0,7.0,57,0.00,,,0.00,661,weatherlink.com 1.10,2013-04-26 20:38:00,
2013-04-26 16:53:00,86.3,70.0,30.19,WNW,290,3.0,7.0,59,0.00,,,0.00,615,weatherlink.com 1.10,2013-04-26 20:53:00,
2013-04-26 17:00:00,86.1,70.1,30.19,WNW,292,4.0,7.0,59,0.00,,---,0.00,646.00,VWS V14.01,2013-04-26 21:00:00,
2013-04-26 17:08:00,85.8,70.0,30.19,WNW,302,2.0,7.0,60,0.00,,,0.00,563,weatherlink.com 1.10,2013-04-26 21:08:00,
2013-04-26 17:23:00,85.6,70.0,30.18,NW,306,3.0,8.0,59,0.00,,,0.00,512,weatherlink.com 1.10,2013-04-26 21:23:00,
2013-04-26 17:30:00,85.6,70.1,30.18,WNW,292,3.0,8.0,60,0.00,,---,0.00,541.00,VWS V14.01,2013-04-26 21:30:00,
2013-04-26 17:38:00,85.2,70.0,30.18,North,355,4.0,7.0,60,0.00,,,0.00,448,weatherlink.com 1.10,2013-04-26 21:38:00,
2013-04-26 17:53:00,84.5,69.0,30.18,NNW,336,3.0,8.0,60,0.00,,,0.00,394,weatherlink.com 1.10,2013-04-26 21:53:00,
2013-04-26 18:00:00,84.3,69.4,30.18,NW,315,4.0,8.0,61,0.00,,---,0.00,433.00,VWS V14.01,2013-04-26 22:00:00,
2013-04-26 18:08:00,83.6,69.0,30.18,NW,307,3.0,9.0,62,0.00,,,0.00,338,weatherlink.com 1.10,2013-04-26 22:08:00,
2013-04-26 18:23:00,83.0,70.0,30.18,WNW,285,5.0,6.0,64,0.00,,,0.00,276,weatherlink.com 1.10,2013-04-26 22:23:00,
2013-04-26 18:30:00,82.9,69.9,30.18,WNW,292,4.0,8.0,65,0.00,,---,0.00,316.00,VWS V14.01,2013-04-26 22:30:00,
2013-04-26 18:38:00,82.6,70.0,30.18,NW,311,4.0,7.0,65,0.00,,,0.00,221,weatherlink.com 1.10,2013-04-26 22:38:00,
2013-04-26 18:54:00,82.0,70.0,30.18,WNW,289,2.0,7.0,67,0.00,,,0.00,158,weatherlink.com 1.10,2013-04-26 22:54:00,
2013-04-26 19:00:00,81.7,70.1,30.18,West,270,3.0,7.0,68,0.00,,---,0.00,196.00,VWS V14.01,2013-04-26 23:00:00,
2013-04-26 19:09:00,81.0,70.0,30.18,SW,220,2.0,7.0,69,0.00,,,0.00,97,weatherlink.com 1.10,2013-04-26 23:09:00,
2013-04-26 19:24:00,80.1,70.0,30.18,West,280,3.0,6.0,71,0.00,,,0.00,49,weatherlink.com 1.10,2013-04-26 23:24:00,
2013-04-26 19:30:00,79.8,70.0,30.18,WNW,292,3.0,7.0,72,0.00,,---,0.00,81.00,VWS V14.01,2013-04-26 23:30:00,
2013-04-26 19:39:00,79.2,70.0,30.18,WNW,302,3.0,6.0,73,0.00,,,0.00,19,weatherlink.com 1.10,2013-04-26 23:39:00,
2013-04-26 19:54:00,78.4,70.0,30.18,West,259,4.0,6.0,74,0.00,,,0.00,5,weatherlink.com 1.10,2013-04-26 23:54:00,
2013-04-26 20:00:00,78.1,69.5,30.18,West,270,3.0,6.0,75,0.00,,---,0.00,15.00,VWS V14.01,2013-04-27 00:00:00,
2013-04-26 20:09:00,77.7,70.0,30.18,WSW,242,5.0,7.0,76,0.00,,,0.00,0,weatherlink.com 1.10,2013-04-27 00:09:00,
2013-04-26 20:24:00,77.1,70.0,30.18,West,274,5.0,7.0,78,0.00,,,0.00,0,weatherlink.com 1.10,2013-04-27 00:24:00,
2013-04-26 20:30:00,76.9,70.3,30.18,West,270,3.0,7.0,80,0.00,,---,0.00,0.00,VWS V14.01,2013-04-27 00:30:00,
2013-04-26 20:39:00,76.5,70.0,30.18,WSW,243,2.0,6.0,81,0.00,,,0.00,0,weatherlink.com 1.10,2013-04-27 00:39:00,
2013-04-26 20:54:00,75.9,70.0,30.18,WNW,282,2.0,6.0,82,0.00,,,0.00,0,weatherlink.com 1.10,2013-04-27 00:54:00,
2013-04-26 21:00:00,75.8,70.3,30.18,West,270,3.0,7.0,83,0.00,,---,0.00,0.00,VWS V14.01,2013-04-27 01:00:00,
2013-04-26 21:09:00,75.5,70.0,30.19,WNW,283,3.0,6.0,84,0.00,,,0.00,0,weatherlink.com 1.10,2013-04-27 01:09:00,
2013-04-26 21:24:00,75.3,70.0,30.20,WSW,244,0.0,5.0,84,0.00,,,0.00,0,weatherlink.com 1.10,2013-04-27 01:24:00,
2013-04-26 21:30:00,75.2,70.4,30.20,WSW,248,3.0,6.0,85,0.00,,---,0.00,0.00,VWS V14.01,2013-04-27 01:30:00,
2013-04-26 21:39:00,75.2,71.0,30.20,West,278,3.0,7.0,85,0.00,,,0.00,0,weatherlink.com 1.10,2013-04-27 01:39:00,
2013-04-26 21:54:00,74.6,69.0,30.20,West,266,5.0,9.0,82,0.00,,,0.00,0,weatherlink.com 1.10,2013-04-27 01:54:00,
2013-04-26 22:00:00,74.5,68.7,30.21,West,270,3.0,9.0,82,0.00,,---,0.00,0.00,VWS V14.01,2013-04-27 02:00:00,
2013-04-26 22:09:00,74.6,68.0,30.21,West,272,5.0,8.0,80,0.00,,,0.00,0,weatherlink.com 1.10,2013-04-27 02:09:00,
2013-04-26 22:24:00,75.0,68.0,30.21,WNW,284,2.0,8.0,78,0.00,,,0.00,0,weatherlink.com 1.10,2013-04-27 02:24:00,
2013-04-26 22:30:00,75.1,67.8,30.21,West,270,4.0,8.0,78,0.00,,---,0.00,0.00,VWS V14.01,2013-04-27 02:30:00,
2013-04-26 22:39:00,75.2,68.0,30.21,West,277,3.0,9.0,78,0.00,,,0.00,0,weatherlink.com 1.10,2013-04-27 02:39:00,
2013-04-26 22:54:00,75.3,68.0,30.21,West,269,6.0,8.0,77,0.00,,,0.00,0,weatherlink.com 1.10,2013-04-27 02:54:00,
2013-04-26 23:00:00,75.4,68.1,30.21,West,270,5.0,10.0,78,0.00,,---,0.00,0.00,VWS V14.01,2013-04-27 03:00:00,
2013-04-26 23:09:00,75.5,68.0,30.22,West,261,6.0,7.0,77,0.00,,,0.00,0,weatherlink.com 1.10,2013-04-27 03:09:00,
2013-04-26 23:24:00,75.5,68.0,30.22,WNW,290,4.0,8.0,77,0.00,,,0.00,0,weatherlink.com 1.10,2013-04-27 03:24:00,
2013-04-26 23:30:00,75.5,67.8,30.22,West,270,4.0,8.0,77,0.00,,---,0.00,0.00,VWS V14.01,2013-04-27 03:30:00,
2013-04-26 23:39:00,75.4,68.0,30.22,West,281,5.0,9.0,77,0.00,,,0.00,0,weatherlink.com 1.10,2013-04-27 03:39:00,
2013-04-26 23:54:00,75.4,68.0,30.22,WNW,286,3.0,10.0,78,0.00,,,0.00,0,weatherlink.com 1.10,2013-04-27 03:54:00,